sensor_id;sensor_type;location;lat;lon;timestamp;P1;durP1;ratioP1;P2;durP2;ratioP2
16075;SDS011;8142;48.242;11.644;2024-03-23T00:56:16;3.60;;;2.70;;
16075;SDS011;8142;48.242;11.644;2024-03-23T00:58:42;3.60;;;2.83;;
16075;SDS011;8142;48.242;11.644;2024-03-23T01:01:08;4.43;;;2.70;;
16075;SDS011;8142;48.242;11.644;2024-03-23T01:03:34;4.83;;;2.90;;
16075;SDS011;8142;48.242;11.644;2024-03-23T01:06:00;2.80;;;2.60;;
16075;SDS011;8142;48.242;11.644;2024-03-23T01:08:27;3.13;;;2.73;;
16075;SDS011;8142;48.242;11.644;2024-03-23T01:10:56;4.50;;;3.03;;
16075;SDS011;8142;48.242;11.644;2024-03-23T01:13:26;5.20;;;3.10;;
16075;SDS011;8142;48.242;11.644;2024-03-23T01:15:53;4.80;;;2.83;;
16075;SDS011;8142;48.242;11.644;2024-03-23T01:18:21;3.83;;;2.90;;
16075;SDS011;8142;48.242;11.644;2024-03-23T01:20:49;4.13;;;2.70;;
16075;SDS011;8142;48.242;11.644;2024-03-23T01:23:15;3.70;;;2.67;;
16075;SDS011;8142;48.242;11.644;2024-03-23T01:25:41;3.97;;;2.40;;
16075;SDS011;8142;48.242;11.644;2024-03-23T01:28:07;4.30;;;2.50;;
16075;SDS011;8142;48.242;11.644;2024-03-23T01:30:33;5.13;;;2.83;;
16075;SDS011;8142;48.242;11.644;2024-03-23T01:33:00;5.23;;;2.40;;
16075;SDS011;8142;48.242;11.644;2024-03-23T01:35:25;3.03;;;2.30;;
16075;SDS011;8142;48.242;11.644;2024-03-23T01:37:52;2.80;;;2.50;;
16075;SDS011;8142;48.242;11.644;2024-03-23T01:40:18;2.80;;;2.30;;
16075;SDS011;8142;48.242;11.644;2024-03-23T01:45:42;5.47;;;2.30;;
16075;SDS011;8142;48.242;11.644;2024-03-23T01:48:08;2.63;;;2.13;;
16075;SDS011;8142;48.242;11.644;2024-03-23T01:50:35;2.50;;;2.27;;
16075;SDS011;8142;48.242;11.644;2024-03-23T01:53:02;2.63;;;2.10;;
16075;SDS011;8142;48.242;11.644;2024-03-23T01:55:31;2.53;;;2.00;;
16075;SDS011;8142;48.242;11.644;2024-03-23T01:57:58;3.10;;;1.90;;
16075;SDS011;8142;48.242;11.644;2024-03-23T02:00:24;3.33;;;2.20;;
16075;SDS011;8142;48.242;11.644;2024-03-23T02:02:51;2.63;;;1.93;;
16075;SDS011;8142;48.242;11.644;2024-03-23T02:05:17;2.60;;;2.00;;
16075;SDS011;8142;48.242;11.644;2024-03-23T02:07:43;3.10;;;2.00;;
16075;SDS011;8142;48.242;11.644;2024-03-23T02:10:09;2.77;;;1.90;;
16075;SDS011;8142;48.242;11.644;2024-03-23T02:12:38;2.60;;;2.00;;
16075;SDS011;8142;48.242;11.644;2024-03-23T02:15:04;3.70;;;1.90;;
16075;SDS011;8142;48.242;11.644;2024-03-23T02:17:32;3.80;;;1.97;;
16075;SDS011;8142;48.242;11.644;2024-03-23T02:19:59;3.60;;;1.90;;
16075;SDS011;8142;48.242;11.644;2024-03-23T02:22:33;3.17;;;1.93;;
16075;SDS011;8142;48.242;11.644;2024-03-23T02:25:03;2.30;;;1.83;;
16075;SDS011;8142;48.242;11.644;2024-03-23T02:27:31;2.20;;;1.90;;
16075;SDS011;8142;48.242;11.644;2024-03-23T02:29:58;2.10;;;1.90;;
16075;SDS011;8142;48.242;11.644;2024-03-23T02:32:25;2.03;;;1.80;;
16075;SDS011;8142;48.242;11.644;2024-03-23T02:34:51;2.30;;;2.10;;
16075;SDS011;8142;48.242;11.644;2024-03-23T02:37:17;3.20;;;1.97;;
16075;SDS011;8142;48.242;11.644;2024-03-23T02:39:43;3.23;;;2.07;;
16075;SDS011;8142;48.242;11.644;2024-03-23T02:42:09;2.67;;;2.00;;
16075;SDS011;8142;48.242;11.644;2024-03-23T02:44:34;2.30;;;1.97;;
16075;SDS011;8142;48.242;11.644;2024-03-23T02:47:00;2.33;;;1.80;;
16075;SDS011;8142;48.242;11.644;2024-03-23T02:49:26;3.83;;;2.13;;
16075;SDS011;8142;48.242;11.644;2024-03-23T02:51:53;3.07;;;2.20;;
16075;SDS011;8142;48.242;11.644;2024-03-23T02:54:20;2.77;;;1.70;;
16075;SDS011;8142;48.242;11.644;2024-03-23T02:56:46;3.17;;;1.87;;
16075;SDS011;8142;48.242;11.644;2024-03-23T02:59:12;2.87;;;1.90;;
16075;SDS011;8142;48.242;11.644;2024-03-23T03:01:38;2.57;;;2.13;;
16075;SDS011;8142;48.242;11.644;2024-03-23T03:04:04;2.20;;;1.83;;
16075;SDS011;8142;48.242;11.644;2024-03-23T03:06:30;2.50;;;2.00;;
16075;SDS011;8142;48.242;11.644;2024-03-23T03:08:56;2.40;;;2.20;;
16075;SDS011;8142;48.242;11.644;2024-03-23T03:11:23;3.33;;;2.00;;
16075;SDS011;8142;48.242;11.644;2024-03-23T03:13:48;2.00;;;1.80;;
16075;SDS011;8142;48.242;11.644;2024-03-23T03:16:14;2.80;;;2.00;;
16075;SDS011;8142;48.242;11.644;2024-03-23T03:18:40;2.73;;;2.00;;
16075;SDS011;8142;48.242;11.644;2024-03-23T03:21:06;3.00;;;2.00;;
16075;SDS011;8142;48.242;11.644;2024-03-23T03:23:39;2.10;;;1.87;;
16075;SDS011;8142;48.242;11.644;2024-03-23T03:26:05;2.70;;;2.00;;
16075;SDS011;8142;48.242;11.644;2024-03-23T03:28:32;2.50;;;2.20;;
16075;SDS011;8142;48.242;11.644;2024-03-23T03:30:58;3.07;;;2.40;;
16075;SDS011;8142;48.242;11.644;2024-03-23T03:33:25;2.90;;;2.03;;
16075;SDS011;8142;48.242;11.644;2024-03-23T03:35:52;4.30;;;2.23;;
16075;SDS011;8142;48.242;11.644;2024-03-23T03:38:18;3.07;;;2.00;;
16075;SDS011;8142;48.242;11.644;2024-03-23T03:40:45;2.23;;;1.90;;
16075;SDS011;8142;48.242;11.644;2024-03-23T03:43:12;2.73;;;2.13;;
16075;SDS011;8142;48.242;11.644;2024-03-23T03:45:39;3.03;;;2.00;;
16075;SDS011;8142;48.242;11.644;2024-03-23T03:48:06;4.07;;;2.20;;
16075;SDS011;8142;48.242;11.644;2024-03-23T03:50:32;4.63;;;2.40;;
16075;SDS011;8142;48.242;11.644;2024-03-23T03:52:58;3.23;;;2.10;;
16075;SDS011;8142;48.242;11.644;2024-03-23T03:55:24;2.87;;;2.37;;
16075;SDS011;8142;48.242;11.644;2024-03-23T03:57:50;2.60;;;2.33;;
16075;SDS011;8142;48.242;11.644;2024-03-23T04:00:16;4.00;;;2.17;;
16075;SDS011;8142;48.242;11.644;2024-03-23T04:02:42;5.00;;;2.10;;
16075;SDS011;8142;48.242;11.644;2024-03-23T04:05:08;4.90;;;2.10;;
16075;SDS011;8142;48.242;11.644;2024-03-23T04:07:34;2.80;;;1.90;;
16075;SDS011;8142;48.242;11.644;2024-03-23T04:10:00;2.73;;;2.27;;
16075;SDS011;8142;48.242;11.644;2024-03-23T04:12:26;2.50;;;1.87;;
16075;SDS011;8142;48.242;11.644;2024-03-23T04:14:52;2.57;;;1.97;;
16075;SDS011;8142;48.242;11.644;2024-03-23T04:17:18;2.43;;;2.10;;
16075;SDS011;8142;48.242;11.644;2024-03-23T04:19:44;3.03;;;2.10;;
16075;SDS011;8142;48.242;11.644;2024-03-23T04:22:10;4.47;;;2.27;;
16075;SDS011;8142;48.242;11.644;2024-03-23T04:24:36;2.13;;;1.90;;
16075;SDS011;8142;48.242;11.644;2024-03-23T04:27:02;2.83;;;2.13;;
16075;SDS011;8142;48.242;11.644;2024-03-23T04:29:28;3.10;;;2.10;;
16075;SDS011;8142;48.242;11.644;2024-03-23T04:31:54;2.97;;;2.03;;
16075;SDS011;8142;48.242;11.644;2024-03-23T04:34:21;2.77;;;1.93;;
16075;SDS011;8142;48.242;11.644;2024-03-23T04:36:48;2.43;;;1.97;;
16075;SDS011;8142;48.242;11.644;2024-03-23T04:39:14;2.97;;;1.93;;
16075;SDS011;8142;48.242;11.644;2024-03-23T04:41:40;2.20;;;2.00;;
16075;SDS011;8142;48.242;11.644;2024-03-23T04:44:06;4.23;;;2.30;;
16075;SDS011;8142;48.242;11.644;2024-03-23T04:46:32;2.63;;;2.10;;
16075;SDS011;8142;48.242;11.644;2024-03-23T04:48:58;2.53;;;2.00;;
16075;SDS011;8142;48.242;11.644;2024-03-23T04:51:24;3.67;;;2.10;;
16075;SDS011;8142;48.242;11.644;2024-03-23T04:53:50;3.17;;;2.20;;
16075;SDS011;8142;48.242;11.644;2024-03-23T04:56:16;4.60;;;2.33;;
16075;SDS011;8142;48.242;11.644;2024-03-23T04:58:43;3.80;;;2.00;;
16075;SDS011;8142;48.242;11.644;2024-03-23T05:01:09;2.60;;;2.10;;
16075;SDS011;8142;48.242;11.644;2024-03-23T05:03:36;2.20;;;2.00;;
16075;SDS011;8142;48.242;11.644;2024-03-23T05:06:02;2.83;;;1.93;;
16075;SDS011;8142;48.242;11.644;2024-03-23T05:08:28;3.17;;;2.20;;
16075;SDS011;8142;48.242;11.644;2024-03-23T05:10:54;2.10;;;1.90;;
16075;SDS011;8142;48.242;11.644;2024-03-23T05:13:20;3.27;;;2.10;;
16075;SDS011;8142;48.242;11.644;2024-03-23T05:15:51;2.57;;;1.87;;
16075;SDS011;8142;48.242;11.644;2024-03-23T05:18:20;2.00;;;1.80;;
16075;SDS011;8142;48.242;11.644;2024-03-23T05:20:48;2.83;;;1.90;;
16075;SDS011;8142;48.242;11.644;2024-03-23T05:23:14;3.53;;;1.90;;
16075;SDS011;8142;48.242;11.644;2024-03-23T05:25:40;2.77;;;1.83;;
16075;SDS011;8142;48.242;11.644;2024-03-23T05:28:06;2.17;;;1.97;;
16075;SDS011;8142;48.242;11.644;2024-03-23T05:30:32;3.13;;;1.97;;
16075;SDS011;8142;48.242;11.644;2024-03-23T05:32:58;3.27;;;1.90;;
16075;SDS011;8142;48.242;11.644;2024-03-23T05:35:24;2.47;;;2.00;;
16075;SDS011;8142;48.242;11.644;2024-03-23T05:37:50;2.50;;;2.00;;
16075;SDS011;8142;48.242;11.644;2024-03-23T05:40:16;2.00;;;1.80;;
16075;SDS011;8142;48.242;11.644;2024-03-23T05:42:47;4.37;;;2.43;;
16075;SDS011;8142;48.242;11.644;2024-03-23T05:45:15;3.30;;;1.90;;
16075;SDS011;8142;48.242;11.644;2024-03-23T05:47:44;3.50;;;1.90;;
16075;SDS011;8142;48.242;11.644;2024-03-23T05:50:10;2.20;;;1.80;;
16075;SDS011;8142;48.242;11.644;2024-03-23T05:52:40;3.77;;;1.80;;
16075;SDS011;8142;48.242;11.644;2024-03-23T05:55:09;3.33;;;1.83;;
16075;SDS011;8142;48.242;11.644;2024-03-23T05:57:35;1.97;;;1.77;;
16075;SDS011;8142;48.242;11.644;2024-03-23T06:00:01;2.13;;;1.80;;
16075;SDS011;8142;48.242;11.644;2024-03-23T06:02:29;1.90;;;1.70;;
16075;SDS011;8142;48.242;11.644;2024-03-23T06:04:56;2.93;;;1.77;;
16075;SDS011;8142;48.242;11.644;2024-03-23T06:07:31;2.33;;;1.63;;
16075;SDS011;8142;48.242;11.644;2024-03-23T06:09:59;1.83;;;1.73;;
16075;SDS011;8142;48.242;11.644;2024-03-23T06:12:25;5.80;;;1.90;;
16075;SDS011;8142;48.242;11.644;2024-03-23T06:14:51;2.73;;;1.63;;
16075;SDS011;8142;48.242;11.644;2024-03-23T06:17:17;2.03;;;1.90;;
16075;SDS011;8142;48.242;11.644;2024-03-23T06:19:43;1.73;;;1.63;;
16075;SDS011;8142;48.242;11.644;2024-03-23T06:22:09;1.70;;;1.60;;
16075;SDS011;8142;48.242;11.644;2024-03-23T06:24:34;2.77;;;1.80;;
16075;SDS011;8142;48.242;11.644;2024-03-23T06:27:00;3.13;;;1.60;;
16075;SDS011;8142;48.242;11.644;2024-03-23T06:29:27;3.67;;;1.90;;
16075;SDS011;8142;48.242;11.644;2024-03-23T06:31:54;4.70;;;1.90;;
16075;SDS011;8142;48.242;11.644;2024-03-23T06:34:22;1.83;;;1.60;;
16075;SDS011;8142;48.242;11.644;2024-03-23T06:36:48;2.83;;;1.83;;
16075;SDS011;8142;48.242;11.644;2024-03-23T06:39:15;2.03;;;1.60;;
16075;SDS011;8142;48.242;11.644;2024-03-23T06:41:42;2.93;;;1.93;;
16075;SDS011;8142;48.242;11.644;2024-03-23T06:44:08;3.70;;;1.80;;
16075;SDS011;8142;48.242;11.644;2024-03-23T06:46:34;2.47;;;1.80;;
16075;SDS011;8142;48.242;11.644;2024-03-23T06:49:00;2.53;;;1.70;;
16075;SDS011;8142;48.242;11.644;2024-03-23T06:51:26;3.90;;;1.87;;
16075;SDS011;8142;48.242;11.644;2024-03-23T06:53:56;2.50;;;1.90;;
16075;SDS011;8142;48.242;11.644;2024-03-23T06:56:24;4.03;;;1.70;;
16075;SDS011;8142;48.242;11.644;2024-03-23T06:58:50;2.60;;;1.40;;
16075;SDS011;8142;48.242;11.644;2024-03-23T07:01:16;2.30;;;1.80;;
16075;SDS011;8142;48.242;11.644;2024-03-23T07:03:42;1.60;;;1.50;;
16075;SDS011;8142;48.242;11.644;2024-03-23T07:06:09;2.10;;;1.53;;
16075;SDS011;8142;48.242;11.644;2024-03-23T07:08:35;2.20;;;1.60;;
16075;SDS011;8142;48.242;11.644;2024-03-23T07:11:02;3.00;;;1.63;;
16075;SDS011;8142;48.242;11.644;2024-03-23T07:13:28;2.23;;;1.80;;
16075;SDS011;8142;48.242;11.644;2024-03-23T07:15:55;2.13;;;1.70;;
16075;SDS011;8142;48.242;11.644;2024-03-23T07:18:25;2.07;;;1.80;;
16075;SDS011;8142;48.242;11.644;2024-03-23T07:20:55;3.20;;;1.70;;
16075;SDS011;8142;48.242;11.644;2024-03-23T07:23:22;2.10;;;1.70;;
16075;SDS011;8142;48.242;11.644;2024-03-23T07:25:58;2.33;;;1.47;;
16075;SDS011;8142;48.242;11.644;2024-03-23T07:28:33;4.73;;;1.90;;
16075;SDS011;8142;48.242;11.644;2024-03-23T07:31:05;3.00;;;1.80;;
16075;SDS011;8142;48.242;11.644;2024-03-23T07:33:34;7.37;;;2.10;;
16075;SDS011;8142;48.242;11.644;2024-03-23T07:36:01;3.17;;;2.03;;
16075;SDS011;8142;48.242;11.644;2024-03-23T07:38:31;3.23;;;2.10;;
16075;SDS011;8142;48.242;11.644;2024-03-23T07:41:06;3.87;;;1.83;;
16075;SDS011;8142;48.242;11.644;2024-03-23T07:43:37;7.00;;;2.50;;
16075;SDS011;8142;48.242;11.644;2024-03-23T07:46:04;2.97;;;2.27;;
16075;SDS011;8142;48.242;11.644;2024-03-23T07:48:30;3.20;;;2.17;;
16075;SDS011;8142;48.242;11.644;2024-03-23T07:51:00;3.10;;;2.13;;
16075;SDS011;8142;48.242;11.644;2024-03-23T07:53:28;4.40;;;2.20;;
16075;SDS011;8142;48.242;11.644;2024-03-23T07:55:55;3.07;;;1.80;;
16075;SDS011;8142;48.242;11.644;2024-03-23T07:58:25;1.80;;;1.70;;
16075;SDS011;8142;48.242;11.644;2024-03-23T08:00:52;3.07;;;2.40;;
16075;SDS011;8142;48.242;11.644;2024-03-23T08:03:22;3.10;;;2.30;;
16075;SDS011;8142;48.242;11.644;2024-03-23T08:05:51;5.03;;;2.60;;
16075;SDS011;8142;48.242;11.644;2024-03-23T08:08:18;3.60;;;2.33;;
16075;SDS011;8142;48.242;11.644;2024-03-23T08:10:50;3.77;;;2.30;;
16075;SDS011;8142;48.242;11.644;2024-03-23T08:13:17;3.00;;;2.20;;
16075;SDS011;8142;48.242;11.644;2024-03-23T08:15:44;2.77;;;1.93;;
16075;SDS011;8142;48.242;11.644;2024-03-23T08:18:11;3.17;;;2.20;;
16075;SDS011;8142;48.242;11.644;2024-03-23T08:20:37;4.20;;;2.73;;
16075;SDS011;8142;48.242;11.644;2024-03-23T08:23:05;6.13;;;3.30;;
16075;SDS011;8142;48.242;11.644;2024-03-23T08:25:34;5.80;;;3.17;;
16075;SDS011;8142;48.242;11.644;2024-03-23T08:28:04;5.33;;;3.20;;
16075;SDS011;8142;48.242;11.644;2024-03-23T08:30:30;2.93;;;2.63;;
16075;SDS011;8142;48.242;11.644;2024-03-23T08:32:56;4.07;;;3.07;;
16075;SDS011;8142;48.242;11.644;2024-03-23T08:35:22;3.83;;;2.77;;
16075;SDS011;8142;48.242;11.644;2024-03-23T08:37:48;3.97;;;3.07;;
16075;SDS011;8142;48.242;11.644;2024-03-23T08:40:14;3.80;;;3.10;;
16075;SDS011;8142;48.242;11.644;2024-03-23T08:42:40;3.93;;;3.10;;
16075;SDS011;8142;48.242;11.644;2024-03-23T08:45:06;4.10;;;3.13;;
16075;SDS011;8142;48.242;11.644;2024-03-23T08:47:38;3.70;;;2.90;;
16075;SDS011;8142;48.242;11.644;2024-03-23T08:50:05;5.33;;;2.87;;
16075;SDS011;8142;48.242;11.644;2024-03-23T08:52:35;3.73;;;3.20;;
16075;SDS011;8142;48.242;11.644;2024-03-23T08:55:01;3.83;;;3.20;;
16075;SDS011;8142;48.242;11.644;2024-03-23T08:57:28;4.27;;;3.30;;
16075;SDS011;8142;48.242;11.644;2024-03-23T08:59:54;4.33;;;3.20;;
16075;SDS011;8142;48.242;11.644;2024-03-23T09:02:20;3.87;;;3.23;;
16075;SDS011;8142;48.242;11.644;2024-03-23T09:04:46;4.43;;;3.20;;
16075;SDS011;8142;48.242;11.644;2024-03-23T09:07:12;4.07;;;3.20;;
16075;SDS011;8142;48.242;11.644;2024-03-23T09:09:40;3.87;;;3.10;;
16075;SDS011;8142;48.242;11.644;2024-03-23T09:12:08;5.13;;;3.50;;
16075;SDS011;8142;48.242;11.644;2024-03-23T09:14:34;5.33;;;3.40;;
16075;SDS011;8142;48.242;11.644;2024-03-23T09:17:00;4.10;;;3.30;;
16075;SDS011;8142;48.242;11.644;2024-03-23T09:19:27;3.67;;;2.90;;
16075;SDS011;8142;48.242;11.644;2024-03-23T09:21:54;3.93;;;2.87;;
16075;SDS011;8142;48.242;11.644;2024-03-23T09:24:20;4.80;;;3.00;;
16075;SDS011;8142;48.242;11.644;2024-03-23T09:26:46;4.07;;;2.90;;
16075;SDS011;8142;48.242;11.644;2024-03-23T09:29:12;3.47;;;3.00;;
16075;SDS011;8142;48.242;11.644;2024-03-23T09:31:39;3.37;;;2.20;;
16075;SDS011;8142;48.242;11.644;2024-03-23T09:34:08;2.90;;;2.60;;
16075;SDS011;8142;48.242;11.644;2024-03-23T09:36:35;5.60;;;2.80;;
16075;SDS011;8142;48.242;11.644;2024-03-23T09:39:01;2.93;;;2.43;;
16075;SDS011;8142;48.242;11.644;2024-03-23T09:41:27;3.57;;;2.53;;
16075;SDS011;8142;48.242;11.644;2024-03-23T09:43:53;2.53;;;2.10;;
16075;SDS011;8142;48.242;11.644;2024-03-23T09:46:19;2.40;;;2.00;;
16075;SDS011;8142;48.242;11.644;2024-03-23T09:48:46;2.30;;;2.10;;
16075;SDS011;8142;48.242;11.644;2024-03-23T09:51:12;2.50;;;1.93;;
16075;SDS011;8142;48.242;11.644;2024-03-23T09:53:38;2.80;;;1.90;;
16075;SDS011;8142;48.242;11.644;2024-03-23T09:56:04;1.90;;;1.60;;
16075;SDS011;8142;48.242;11.644;2024-03-23T09:58:30;2.40;;;1.70;;
16075;SDS011;8142;48.242;11.644;2024-03-23T10:00:57;1.67;;;1.50;;
16075;SDS011;8142;48.242;11.644;2024-03-23T10:03:24;2.50;;;1.90;;
16075;SDS011;8142;48.242;11.644;2024-03-23T10:05:59;2.80;;;1.70;;
16075;SDS011;8142;48.242;11.644;2024-03-23T10:08:30;2.60;;;1.57;;
16075;SDS011;8142;48.242;11.644;2024-03-23T10:10:56;1.60;;;1.50;;
16075;SDS011;8142;48.242;11.644;2024-03-23T10:13:26;2.50;;;1.33;;
16075;SDS011;8142;48.242;11.644;2024-03-23T10:15:58;1.50;;;1.20;;
16075;SDS011;8142;48.242;11.644;2024-03-23T10:18:25;1.73;;;1.30;;
16075;SDS011;8142;48.242;11.644;2024-03-23T10:23:34;0.93;;;0.93;;
16075;SDS011;8142;48.242;11.644;2024-03-23T10:26:22;1.20;;;1.10;;
16075;SDS011;8142;48.242;11.644;2024-03-23T10:28:51;1.20;;;1.10;;
16075;SDS011;8142;48.242;11.644;2024-03-23T10:31:18;1.23;;;1.13;;
16075;SDS011;8142;48.242;11.644;2024-03-23T10:33:45;1.40;;;1.30;;
16075;SDS011;8142;48.242;11.644;2024-03-23T10:36:12;1.33;;;1.10;;
16075;SDS011;8142;48.242;11.644;2024-03-23T10:38:39;1.93;;;1.17;;
16075;SDS011;8142;48.242;11.644;2024-03-23T10:41:09;0.80;;;0.80;;
16075;SDS011;8142;48.242;11.644;2024-03-23T10:43:36;0.70;;;0.70;;
16075;SDS011;8142;48.242;11.644;2024-03-23T10:46:03;0.80;;;0.80;;
16075;SDS011;8142;48.242;11.644;2024-03-23T10:48:29;0.80;;;0.80;;
16075;SDS011;8142;48.242;11.644;2024-03-23T10:50:56;0.80;;;0.80;;
16075;SDS011;8142;48.242;11.644;2024-03-23T10:53:25;1.33;;;0.83;;
16075;SDS011;8142;48.242;11.644;2024-03-23T10:55:52;0.70;;;0.70;;
16075;SDS011;8142;48.242;11.644;2024-03-23T10:58:24;1.30;;;0.90;;
16075;SDS011;8142;48.242;11.644;2024-03-23T11:00:54;1.80;;;0.93;;
16075;SDS011;8142;48.242;11.644;2024-03-23T11:06:02;1.47;;;0.80;;
16075;SDS011;8142;48.242;11.644;2024-03-23T11:08:39;0.70;;;0.70;;
16075;SDS011;8142;48.242;11.644;2024-03-23T11:11:18;1.43;;;0.83;;
16075;SDS011;8142;48.242;11.644;2024-03-23T11:13:49;1.53;;;0.80;;
16075;SDS011;8142;48.242;11.644;2024-03-23T11:18:43;1.50;;;0.80;;
16075;SDS011;8142;48.242;11.644;2024-03-23T11:21:10;1.23;;;0.77;;
16075;SDS011;8142;48.242;11.644;2024-03-23T11:23:36;1.70;;;1.10;;
16075;SDS011;8142;48.242;11.644;2024-03-23T11:26:02;0.80;;;0.80;;
16075;SDS011;8142;48.242;11.644;2024-03-23T11:28:32;1.53;;;0.90;;
16075;SDS011;8142;48.242;11.644;2024-03-23T11:30:58;1.20;;;1.03;;
16075;SDS011;8142;48.242;11.644;2024-03-23T11:33:24;1.10;;;1.10;;
16075;SDS011;8142;48.242;11.644;2024-03-23T11:35:50;1.00;;;0.90;;
16075;SDS011;8142;48.242;11.644;2024-03-23T11:38:17;1.13;;;0.93;;
16075;SDS011;8142;48.242;11.644;2024-03-23T11:40:47;2.13;;;1.30;;
16075;SDS011;8142;48.242;11.644;2024-03-23T11:43:18;1.60;;;1.20;;
16075;SDS011;8142;48.242;11.644;2024-03-23T11:45:45;1.27;;;1.10;;
16075;SDS011;8142;48.242;11.644;2024-03-23T11:48:13;3.43;;;1.23;;
16075;SDS011;8142;48.242;11.644;2024-03-23T11:50:41;1.70;;;1.20;;
16075;SDS011;8142;48.242;11.644;2024-03-23T11:53:15;1.90;;;1.30;;
16075;SDS011;8142;48.242;11.644;2024-03-23T11:55:42;1.60;;;1.10;;
16075;SDS011;8142;48.242;11.644;2024-03-23T11:58:16;1.20;;;1.10;;
16075;SDS011;8142;48.242;11.644;2024-03-23T12:00:52;1.10;;;1.10;;
16075;SDS011;8142;48.242;11.644;2024-03-23T12:03:23;1.27;;;1.17;;
16075;SDS011;8142;48.242;11.644;2024-03-23T12:05:53;2.07;;;1.40;;
16075;SDS011;8142;48.242;11.644;2024-03-23T12:08:24;3.27;;;1.40;;
16075;SDS011;8142;48.242;11.644;2024-03-23T12:11:13;1.20;;;1.10;;
16075;SDS011;8142;48.242;11.644;2024-03-23T12:13:42;1.23;;;1.13;;
16075;SDS011;8142;48.242;11.644;2024-03-23T12:16:16;1.40;;;1.30;;
16075;SDS011;8142;48.242;11.644;2024-03-23T12:18:44;2.47;;;1.40;;
16075;SDS011;8142;48.242;11.644;2024-03-23T12:21:10;1.70;;;1.37;;
16075;SDS011;8142;48.242;11.644;2024-03-23T12:23:38;1.87;;;1.33;;
16075;SDS011;8142;48.242;11.644;2024-03-23T12:26:05;1.90;;;1.33;;
16075;SDS011;8142;48.242;11.644;2024-03-23T12:28:32;2.23;;;1.57;;
16075;SDS011;8142;48.242;11.644;2024-03-23T12:30:58;2.30;;;1.60;;
16075;SDS011;8142;48.242;11.644;2024-03-23T12:33:24;1.70;;;1.57;;
16075;SDS011;8142;48.242;11.644;2024-03-23T12:35:50;3.83;;;1.67;;
16075;SDS011;8142;48.242;11.644;2024-03-23T12:38:17;3.40;;;1.80;;
16075;SDS011;8142;48.242;11.644;2024-03-23T12:40:47;3.77;;;1.80;;
16075;SDS011;8142;48.242;11.644;2024-03-23T12:43:14;3.30;;;1.70;;
16075;SDS011;8142;48.242;11.644;2024-03-23T12:45:41;3.43;;;1.80;;
16075;SDS011;8142;48.242;11.644;2024-03-23T12:48:11;6.87;;;2.30;;
16075;SDS011;8142;48.242;11.644;2024-03-23T12:50:37;3.07;;;1.90;;
16075;SDS011;8142;48.242;11.644;2024-03-23T12:53:03;2.30;;;1.60;;
16075;SDS011;8142;48.242;11.644;2024-03-23T12:55:29;4.77;;;2.00;;
16075;SDS011;8142;48.242;11.644;2024-03-23T12:57:55;5.67;;;2.00;;
16075;SDS011;8142;48.242;11.644;2024-03-23T13:00:22;3.50;;;1.90;;
16075;SDS011;8142;48.242;11.644;2024-03-23T13:02:47;3.10;;;1.90;;
16075;SDS011;8142;48.242;11.644;2024-03-23T13:05:14;3.33;;;1.80;;
16075;SDS011;8142;48.242;11.644;2024-03-23T13:07:40;4.23;;;1.90;;
16075;SDS011;8142;48.242;11.644;2024-03-23T13:10:06;4.67;;;1.83;;
16075;SDS011;8142;48.242;11.644;2024-03-23T13:12:33;3.83;;;1.80;;
16075;SDS011;8142;48.242;11.644;2024-03-23T13:14:59;4.37;;;1.87;;
16075;SDS011;8142;48.242;11.644;2024-03-23T13:17:25;3.30;;;2.00;;
16075;SDS011;8142;48.242;11.644;2024-03-23T13:19:54;4.57;;;2.00;;
16075;SDS011;8142;48.242;11.644;2024-03-23T13:22:23;4.47;;;2.00;;
16075;SDS011;8142;48.242;11.644;2024-03-23T13:24:49;4.03;;;1.90;;
16075;SDS011;8142;48.242;11.644;2024-03-23T13:27:15;4.63;;;2.13;;
16075;SDS011;8142;48.242;11.644;2024-03-23T13:29:41;2.33;;;2.00;;
16075;SDS011;8142;48.242;11.644;2024-03-23T13:32:07;3.87;;;2.40;;
16075;SDS011;8142;48.242;11.644;2024-03-23T13:34:34;4.07;;;2.13;;
16075;SDS011;8142;48.242;11.644;2024-03-23T13:37:00;6.53;;;2.17;;
16075;SDS011;8142;48.242;11.644;2024-03-23T13:39:26;4.40;;;2.17;;
16075;SDS011;8142;48.242;11.644;2024-03-23T13:41:53;3.57;;;2.03;;
16075;SDS011;8142;48.242;11.644;2024-03-23T13:44:22;4.00;;;2.50;;
16075;SDS011;8142;48.242;11.644;2024-03-23T13:46:48;6.10;;;2.40;;
16075;SDS011;8142;48.242;11.644;2024-03-23T13:49:29;6.40;;;2.63;;
16075;SDS011;8142;48.242;11.644;2024-03-23T13:51:57;4.00;;;2.50;;
16075;SDS011;8142;48.242;11.644;2024-03-23T13:54:24;6.37;;;3.00;;
16075;SDS011;8142;48.242;11.644;2024-03-23T13:56:50;5.73;;;3.20;;
16075;SDS011;8142;48.242;11.644;2024-03-23T13:59:16;5.47;;;3.17;;
16075;SDS011;8142;48.242;11.644;2024-03-23T14:01:43;5.00;;;2.93;;
16075;SDS011;8142;48.242;11.644;2024-03-23T14:04:11;4.50;;;2.73;;
16075;SDS011;8142;48.242;11.644;2024-03-23T14:06:37;6.00;;;2.83;;
16075;SDS011;8142;48.242;11.644;2024-03-23T14:09:03;5.57;;;2.67;;
16075;SDS011;8142;48.242;11.644;2024-03-23T14:11:30;5.43;;;3.20;;
16075;SDS011;8142;48.242;11.644;2024-03-23T14:13:56;5.30;;;3.10;;
16075;SDS011;8142;48.242;11.644;2024-03-23T14:16:22;6.17;;;2.90;;
16075;SDS011;8142;48.242;11.644;2024-03-23T14:18:48;6.13;;;3.07;;
16075;SDS011;8142;48.242;11.644;2024-03-23T14:21:14;7.17;;;3.13;;
16075;SDS011;8142;48.242;11.644;2024-03-23T14:23:40;8.10;;;3.60;;
16075;SDS011;8142;48.242;11.644;2024-03-23T14:26:06;5.80;;;3.00;;
16075;SDS011;8142;48.242;11.644;2024-03-23T14:28:33;5.40;;;2.70;;
16075;SDS011;8142;48.242;11.644;2024-03-23T14:31:00;4.60;;;2.50;;
16075;SDS011;8142;48.242;11.644;2024-03-23T14:33:26;4.57;;;2.57;;
16075;SDS011;8142;48.242;11.644;2024-03-23T14:35:56;4.47;;;2.23;;
16075;SDS011;8142;48.242;11.644;2024-03-23T14:38:24;5.30;;;2.37;;
16075;SDS011;8142;48.242;11.644;2024-03-23T14:40:50;4.93;;;2.20;;
16075;SDS011;8142;48.242;11.644;2024-03-23T14:43:18;5.60;;;2.13;;
16075;SDS011;8142;48.242;11.644;2024-03-23T14:48:36;4.63;;;2.23;;
16075;SDS011;8142;48.242;11.644;2024-03-23T14:51:02;3.87;;;1.90;;
16075;SDS011;8142;48.242;11.644;2024-03-23T14:53:30;6.50;;;1.80;;
16075;SDS011;8142;48.242;11.644;2024-03-23T14:55:57;5.00;;;2.07;;
16075;SDS011;8142;48.242;11.644;2024-03-23T14:58:23;3.80;;;1.83;;
16075;SDS011;8142;48.242;11.644;2024-03-23T15:00:50;2.33;;;1.50;;
16075;SDS011;8142;48.242;11.644;2024-03-23T15:03:17;2.73;;;1.70;;
16075;SDS011;8142;48.242;11.644;2024-03-23T15:05:53;5.73;;;1.70;;
16075;SDS011;8142;48.242;11.644;2024-03-23T15:08:20;4.33;;;1.50;;
16075;SDS011;8142;48.242;11.644;2024-03-23T15:10:47;2.73;;;1.60;;
16075;SDS011;8142;48.242;11.644;2024-03-23T15:13:13;3.47;;;1.53;;
16075;SDS011;8142;48.242;11.644;2024-03-23T15:15:40;3.60;;;1.60;;
16075;SDS011;8142;48.242;11.644;2024-03-23T15:18:09;5.00;;;1.67;;
16075;SDS011;8142;48.242;11.644;2024-03-23T15:20:38;3.03;;;1.60;;
16075;SDS011;8142;48.242;11.644;2024-03-23T15:23:04;2.47;;;1.40;;
16075;SDS011;8142;48.242;11.644;2024-03-23T15:25:30;2.93;;;1.50;;
16075;SDS011;8142;48.242;11.644;2024-03-23T15:27:57;3.47;;;1.47;;
16075;SDS011;8142;48.242;11.644;2024-03-23T15:30:24;4.60;;;1.40;;
16075;SDS011;8142;48.242;11.644;2024-03-23T15:32:51;3.70;;;1.37;;
16075;SDS011;8142;48.242;11.644;2024-03-23T15:35:17;2.50;;;1.40;;
16075;SDS011;8142;48.242;11.644;2024-03-23T15:37:44;3.77;;;1.50;;
16075;SDS011;8142;48.242;11.644;2024-03-23T15:40:10;3.60;;;1.50;;
16075;SDS011;8142;48.242;11.644;2024-03-23T15:42:38;3.00;;;1.50;;
16075;SDS011;8142;48.242;11.644;2024-03-23T15:45:07;4.47;;;1.70;;
16075;SDS011;8142;48.242;11.644;2024-03-23T15:47:34;3.27;;;1.40;;
16075;SDS011;8142;48.242;11.644;2024-03-23T15:50:01;3.73;;;1.77;;
16075;SDS011;8142;48.242;11.644;2024-03-23T15:52:29;2.93;;;1.43;;
16075;SDS011;8142;48.242;11.644;2024-03-23T15:54:55;3.43;;;1.70;;
16075;SDS011;8142;48.242;11.644;2024-03-23T15:57:23;3.77;;;1.40;;